Time;durP1;ratioP1;P1;durP2;ratioP2;P2;SDS_P1;SDS_P2;PMS_P1;PMS_P2;Temp;Humidity;BMP_temperature;BMP_pressure;BME280_temperature;BME280_humidity;BME280_pressure;Samples;Min_cycle;Max_cycle;Signal;HPM_P1;HPM_P2
2023/04/18 00:00:56;;;;;;;9.73;6.28;;;;;;;;;;5081771;28;20028;-59
2023/04/18 00:03:22;;;;;;;9.02;6.05;;;;;;;;;;5079977;28;20028;-58
2023/04/18 00:05:47;;;;;;;9.48;5.95;;;;;;;;;;5081904;28;20450;-59
2023/04/18 00:08:13;;;;;;;10.25;6.05;;;;;;;;;;5081285;28;20518;-59
2023/04/18 00:10:38;;;;;;;12.13;6.18;;;;;;;;;;5082086;28;20032;-59
2023/04/18 00:13:03;;;;;;;9.95;5.32;;;;;;;;;;5081360;28;20023;-58
2023/04/18 00:15:29;;;;;;;11.00;5.75;;;;;;;;;;5081662;28;20023;-60
2023/04/18 00:17:55;;;;;;;9.20;5.80;;;;;;;;;;5081776;28;20055;-59
2023/04/18 00:20:21;;;;;;;10.63;5.70;;;;;;;;;;5081296;28;20535;-58
2023/04/18 00:22:46;;;;;;;6.93;5.00;;;;;;;;;;5081592;28;20139;-59
2023/04/18 00:25:12;;;;;;;10.27;7.68;;;;;;;;;;5081090;28;20012;-60
2023/04/18 00:27:37;;;;;;;9.98;6.25;;;;;;;;;;5081891;28;20020;-60
2023/04/18 00:30:03;;;;;;;10.60;8.35;;;;;;;;;;5081123;28;20020;-60
2023/04/18 00:32:29;;;;;;;11.82;10.00;;;;;;;;;;5080972;28;20024;-59
2023/04/18 00:34:54;;;;;;;13.57;11.27;;;;;;;;;;5081091;28;20020;-59
2023/04/18 00:37:19;;;;;;;16.02;14.32;;;;;;;;;;5080918;28;20020;-59
2023/04/18 00:39:44;;;;;;;13.02;9.85;;;;;;;;;;5081623;28;20034;-59
2023/04/18 00:42:10;;;;;;;18.85;17.17;;;;;;;;;;5080921;28;20055;-60
2023/04/18 00:44:35;;;;;;;36.85;33.55;;;;;;;;;;5081520;28;20032;-58
2023/04/18 00:47:00;;;;;;;35.42;32.47;;;;;;;;;;5080721;28;20016;-59
2023/04/18 00:49:26;;;;;;;67.45;60.70;;;;;;;;;;5079776;28;20456;-59
2023/04/18 00:51:52;;;;;;;13.68;11.15;;;;;;;;;;5080837;28;20027;-59
2023/04/18 00:54:17;;;;;;;16.88;15.18;;;;;;;;;;5081170;28;20459;-59
2023/04/18 00:56:44;;;;;;;83.93;77.43;;;;;;;;;;5080979;28;20311;-58
2023/04/18 00:59:10;;;;;;;239.45;184.20;;;;;;;;;;5081161;28;20099;-59
2023/04/18 01:01:36;;;;;;;10.55;7.30;;;;;;;;;;5080494;28;20131;-58
2023/04/18 01:04:01;;;;;;;6.80;4.80;;;;;;;;;;5081024;28;20024;-59
2023/04/18 01:06:27;;;;;;;8.85;5.45;;;;;;;;;;5080894;28;20024;-58
2023/04/18 01:08:53;;;;;;;8.32;4.85;;;;;;;;;;5080816;28;20082;-59
2023/04/18 01:11:19;;;;;;;9.25;5.43;;;;;;;;;;5080902;28;20085;-58
2023/04/18 01:14:03;;;;;;;8.15;4.95;;;;;;;;;;5080525;28;20412;-59
2023/04/18 01:16:31;;;;;;;9.93;5.32;;;;;;;;;;5080677;28;20254;-57
2023/04/18 01:18:56;;;;;;;9.70;5.30;;;;;;;;;;5079312;28;20028;-58
2023/04/18 01:21:21;;;;;;;8.47;5.60;;;;;;;;;;5080688;28;20077;-59
2023/04/18 01:23:47;;;;;;;8.02;4.78;;;;;;;;;;5080459;28;20249;-60
2023/04/18 01:26:12;;;;;;;8.88;4.97;;;;;;;;;;5080781;28;20027;-59
2023/04/18 01:28:37;;;;;;;8.35;5.00;;;;;;;;;;5080841;28;20472;-58
2023/04/18 01:31:03;;;;;;;8.60;5.28;;;;;;;;;;5080799;28;20035;-60
2023/04/18 01:33:28;;;;;;;9.93;5.47;;;;;;;;;;5080565;28;20021;-58
2023/04/18 01:35:53;;;;;;;7.03;4.50;;;;;;;;;;5079030;28;20051;-58
2023/04/18 01:38:19;;;;;;;11.17;5.70;;;;;;;;;;5080276;28;20248;-58
2023/04/18 01:40:44;;;;;;;11.35;5.57;;;;;;;;;;5080672;28;20271;-58
2023/04/18 01:43:09;;;;;;;10.13;5.38;;;;;;;;;;5080720;28;20506;-59
2023/04/18 01:45:34;;;;;;;8.43;5.20;;;;;;;;;;5084181;28;20016;-59
2023/04/18 01:48:00;;;;;;;7.37;4.97;;;;;;;;;;5084618;28;20565;-58
2023/04/18 01:50:25;;;;;;;6.05;4.63;;;;;;;;;;5084288;28;20604;-58
2023/04/18 01:52:50;;;;;;;9.65;5.78;;;;;;;;;;5084437;28;20024;-59
2023/04/18 01:55:16;;;;;;;9.25;5.53;;;;;;;;;;5083924;28;20027;-57
2023/04/18 01:57:41;;;;;;;9.07;5.40;;;;;;;;;;5084104;28;20053;-60
2023/04/18 02:00:06;;;;;;;9.02;5.55;;;;;;;;;;5083821;28;20095;-60
2023/04/18 02:02:32;;;;;;;9.55;4.72;;;;;;;;;;5084067;28;20031;-60
2023/04/18 02:04:57;;;;;;;10.65;5.22;;;;;;;;;;5083874;28;20051;-59
2023/04/18 02:07:22;;;;;;;9.82;4.75;;;;;;;;;;5084295;28;20464;-59
2023/04/18 02:09:48;;;;;;;9.80;5.78;;;;;;;;;;5083890;28;20016;-58
2023/04/18 02:12:13;;;;;;;8.23;4.95;;;;;;;;;;5082644;28;20515;-60
2023/04/18 02:14:38;;;;;;;8.77;5.78;;;;;;;;;;5080840;28;20032;-58
2023/04/18 02:17:03;;;;;;;8.05;4.78;;;;;;;;;;5083563;28;20024;-59
2023/04/18 02:19:29;;;;;;;9.48;4.88;;;;;;;;;;5082615;28;20110;-59
2023/04/18 02:21:54;;;;;;;12.70;4.78;;;;;;;;;;5083216;28;20081;-59
2023/04/18 02:24:20;;;;;;;7.95;4.93;;;;;;;;;;5083931;28;20469;-58
2023/04/18 02:26:45;;;;;;;9.52;5.28;;;;;;;;;;5083300;28;20016;-60
2023/04/18 02:29:10;;;;;;;11.55;5.15;;;;;;;;;;5083691;28;20071;-58
2023/04/18 02:31:36;;;;;;;7.45;5.20;;;;;;;;;;5081659;28;20027;-59
2023/04/18 02:34:01;;;;;;;7.90;4.60;;;;;;;;;;5083693;28;20153;-59
2023/04/18 02:36:27;;;;;;;8.25;5.53;;;;;;;;;;5082975;28;20375;-58
2023/04/18 02:38:52;;;;;;;8.20;4.43;;;;;;;;;;5083671;28;20112;-59
2023/04/18 02:41:18;;;;;;;8.60;5.07;;;;;;;;;;5083067;28;20028;-59
2023/04/18 02:43:43;;;;;;;7.82;4.38;;;;;;;;;;5081567;28;20039;-60
2023/04/18 02:46:09;;;;;;;12.18;5.05;;;;;;;;;;5083368;28;20111;-59
2023/04/18 02:48:34;;;;;;;8.38;4.53;;;;;;;;;;5082954;28;20027;-59
2023/04/18 02:51:03;;;;;;;7.82;5.00;;;;;;;;;;5083650;28;20024;-59
2023/04/18 02:53:28;;;;;;;11.20;5.25;;;;;;;;;;5081291;28;20043;-59
2023/04/18 02:55:54;;;;;;;14.80;5.20;;;;;;;;;;5081370;28;20051;-58
2023/04/18 02:58:19;;;;;;;8.13;4.88;;;;;;;;;;5082847;28;20059;-59
2023/04/18 03:00:44;;;;;;;8.00;4.68;;;;;;;;;;5063367;28;20028;-59
2023/04/18 03:03:10;;;;;;;8.77;4.72;;;;;;;;;;5082724;28;20047;-59
2023/04/18 03:05:35;;;;;;;7.65;4.60;;;;;;;;;;5082879;28;20043;-59
2023/04/18 03:08:00;;;;;;;8.57;4.72;;;;;;;;;;5082643;28;20087;-59
2023/04/18 03:10:26;;;;;;;6.50;4.38;;;;;;;;;;5082673;28;20020;-58
2023/04/18 03:12:51;;;;;;;7.07;4.75;;;;;;;;;;5081311;28;20135;-60
2023/04/18 03:15:16;;;;;;;12.98;5.53;;;;;;;;;;5082438;28;20016;-57
2023/04/18 03:17:42;;;;;;;8.57;5.60;;;;;;;;;;5083001;28;20047;-58
2023/04/18 03:20:09;;;;;;;11.68;4.80;;;;;;;;;;5082230;28;20539;-59
2023/04/18 03:22:34;;;;;;;8.40;4.40;;;;;;;;;;5082479;28;20072;-58
2023/04/18 03:24:59;;;;;;;9.35;5.28;;;;;;;;;;5082114;28;20036;-56
2023/04/18 03:27:25;;;;;;;7.88;4.85;;;;;;;;;;5082232;28;20043;-59
2023/04/18 03:29:50;;;;;;;6.85;4.50;;;;;;;;;;5082199;28;20024;-59
2023/04/18 03:32:16;;;;;;;8.30;4.93;;;;;;;;;;5080647;28;20537;-59
2023/04/18 03:34:41;;;;;;;7.53;4.32;;;;;;;;;;5082288;28;20110;-59
2023/04/18 03:37:06;;;;;;;7.85;5.15;;;;;;;;;;5081705;28;20464;-59
2023/04/18 03:39:31;;;;;;;10.40;4.82;;;;;;;;;;5082119;28;20158;-59
2023/04/18 03:41:57;;;;;;;8.23;4.55;;;;;;;;;;5081445;28;20024;-59
2023/04/18 03:44:22;;;;;;;6.53;4.35;;;;;;;;;;5081836;28;20123;-59
2023/04/18 03:46:47;;;;;;;7.72;5.00;;;;;;;;;;5081843;28;20028;-58
2023/04/18 03:49:13;;;;;;;9.65;5.30;;;;;;;;;;5082044;28;20380;-58
2023/04/18 03:51:42;;;;;;;10.43;5.20;;;;;;;;;;5081933;28;20969;-60
2023/04/18 03:54:07;;;;;;;8.85;4.95;;;;;;;;;;5081876;28;20071;-59
2023/04/18 03:56:33;;;;;;;8.30;4.72;;;;;;;;;;5081979;28;20467;-59
2023/04/18 03:58:58;;;;;;;8.88;4.90;;;;;;;;;;5081802;28;20020;-60
2023/04/18 04:01:23;;;;;;;8.38;5.07;;;;;;;;;;5081740;28;20073;-58
2023/04/18 04:03:49;;;;;;;7.88;4.82;;;;;;;;;;5081799;28;20034;-58
2023/04/18 04:06:14;;;;;;;8.63;4.95;;;;;;;;;;5081089;28;20020;-58
2023/04/18 04:08:40;;;;;;;8.63;4.68;;;;;;;;;;5080149;28;20141;-59
2023/04/18 04:11:05;;;;;;;10.77;4.80;;;;;;;;;;5081723;28;20054;-59
2023/04/18 04:13:30;;;;;;;8.00;4.13;;;;;;;;;;5081178;28;20507;-59
2023/04/18 04:15:56;;;;;;;9.73;4.43;;;;;;;;;;5081856;28;20032;-59
2023/04/18 04:18:28;;;;;;;6.75;4.15;;;;;;;;;;5080037;28;20554;-59
2023/04/18 04:20:53;;;;;;;8.63;4.70;;;;;;;;;;5081221;28;20115;-57
2023/04/18 04:23:19;;;;;;;7.00;4.40;;;;;;;;;;5081283;28;20107;-60
2023/04/18 04:25:45;;;;;;;11.20;5.05;;;;;;;;;;5081068;28;20056;-59
2023/04/18 04:28:10;;;;;;;7.13;4.20;;;;;;;;;;5081563;28;20470;-58
2023/04/18 04:30:37;;;;;;;7.90;4.55;;;;;;;;;;5081160;28;20023;-58
2023/04/18 04:33:02;;;;;;;9.13;4.53;;;;;;;;;;5079903;28;20452;-60
2023/04/18 04:35:27;;;;;;;7.85;4.28;;;;;;;;;;5079369;28;20019;-57
2023/04/18 04:37:53;;;;;;;6.45;4.10;;;;;;;;;;5080792;28;20016;-58
2023/04/18 04:40:18;;;;;;;11.23;5.05;;;;;;;;;;5081010;28;20016;-59
2023/04/18 04:42:44;;;;;;;9.43;3.95;;;;;;;;;;5080682;28;20032;-58
2023/04/18 04:45:10;;;;;;;14.25;4.57;;;;;;;;;;5079671;28;20399;-58
2023/04/18 04:47:35;;;;;;;6.90;4.15;;;;;;;;;;5080927;28;20016;-59
2023/04/18 04:50:01;;;;;;;8.50;4.00;;;;;;;;;;5081205;28;20376;-59
2023/04/18 04:52:26;;;;;;;5.70;3.95;;;;;;;;;;5080765;28;20030;-59
2023/04/18 04:54:51;;;;;;;7.82;4.50;;;;;;;;;;5081210;28;20027;-58
2023/04/18 04:57:16;;;;;;;6.30;3.90;;;;;;;;;;5080804;28;20024;-57
2023/04/18 04:59:42;;;;;;;5.85;4.13;;;;;;;;;;5081085;28;20016;-60
2023/04/18 05:02:07;;;;;;;9.32;3.53;;;;;;;;;;5081065;28;20414;-57
2023/04/18 05:04:32;;;;;;;7.85;4.20;;;;;;;;;;5080847;28;20020;-59
2023/04/18 05:06:57;;;;;;;5.32;3.40;;;;;;;;;;5080931;28;20531;-60
2023/04/18 05:09:23;;;;;;;7.32;4.18;;;;;;;;;;5080357;28;20176;-59
2023/04/18 05:11:48;;;;;;;9.00;3.45;;;;;;;;;;5081244;28;20107;-58
2023/04/18 05:14:14;;;;;;;6.05;4.07;;;;;;;;;;5080805;28;20347;-56
2023/04/18 05:16:40;;;;;;;8.52;4.47;;;;;;;;;;5079408;28;20016;-59
2023/04/18 05:19:05;;;;;;;7.85;4.05;;;;;;;;;;5081527;28;20019;-59
2023/04/18 05:21:31;;;;;;;6.05;3.42;;;;;;;;;;5085375;28;20035;-59
2023/04/18 05:23:56;;;;;;;6.95;4.10;;;;;;;;;;5085093;28;20024;-58
2023/04/18 05:26:22;;;;;;;6.97;3.78;;;;;;;;;;5084627;28;20530;-60
2023/04/18 05:28:47;;;;;;;7.40;4.07;;;;;;;;;;5084864;28;20020;-59
2023/04/18 05:31:13;;;;;;;9.10;3.30;;;;;;;;;;5083231;28;20631;-60
2023/04/18 05:33:38;;;;;;;9.85;3.95;;;;;;;;;;5084793;28;20077;-58
2023/04/18 05:36:03;;;;;;;6.78;4.13;;;;;;;;;;5082929;28;20408;-59
2023/04/18 05:38:29;;;;;;;8.90;3.55;;;;;;;;;;5095596;28;20142;-59
2023/04/18 05:40:54;;;;;;;6.82;3.65;;;;;;;;;;5090185;28;20024;-57
2023/04/18 05:43:20;;;;;;;6.38;2.80;;;;;;;;;;5093393;28;20571;-59
2023/04/18 05:45:45;;;;;;;5.95;3.15;;;;;;;;;;5089560;28;20651;-58
2023/04/18 05:48:11;;;;;;;7.68;3.58;;;;;;;;;;5088739;28;20048;-58
2023/04/18 05:50:36;;;;;;;6.82;3.55;;;;;;;;;;5089694;28;20043;-57
2023/04/18 05:53:01;;;;;;;6.55;3.75;;;;;;;;;;5088991;28;20069;-59
2023/04/18 05:55:27;;;;;;;6.65;3.42;;;;;;;;;;5086120;28;20027;-59
2023/04/18 05:57:52;;;;;;;7.55;3.67;;;;;;;;;;5088811;28;20457;-60
2023/04/18 06:00:18;;;;;;;5.70;3.40;;;;;;;;;;5089138;28;20438;-59
2023/04/18 06:02:43;;;;;;;8.13;3.42;;;;;;;;;;5091762;28;20024;-60
2023/04/18 06:05:08;;;;;;;5.78;3.50;;;;;;;;;;5088725;28;20059;-60
2023/04/18 06:07:34;;;;;;;6.80;3.80;;;;;;;;;;5082721;28;20052;-55
2023/04/18 06:09:59;;;;;;;11.40;3.90;;;;;;;;;;5083920;28;20024;-58
2023/04/18 06:12:24;;;;;;;6.25;3.75;;;;;;;;;;5086484;28;20035;-59
2023/04/18 06:14:50;;;;;;;6.15;3.63;;;;;;;;;;5087089;28;20024;-54
2023/04/18 06:17:15;;;;;;;7.05;3.45;;;;;;;;;;5082464;28;20031;-53
2023/04/18 06:19:40;;;;;;;7.43;3.47;;;;;;;;;;5080101;28;20024;-56
2023/04/18 06:22:06;;;;;;;6.55;3.30;;;;;;;;;;5082004;28;20132;-54
2023/04/18 06:24:31;;;;;;;6.97;3.08;;;;;;;;;;5081744;28;20020;-56
2023/04/18 06:26:56;;;;;;;7.38;2.97;;;;;;;;;;5083578;28;20024;-58
2023/04/18 06:29:22;;;;;;;10.90;3.72;;;;;;;;;;5079103;28;20020;-52
2023/04/18 06:31:49;;;;;;;4.60;2.63;;;;;;;;;;5068352;28;20009;-59
2023/04/18 06:34:15;;;;;;;5.78;2.85;;;;;;;;;;5077951;28;20020;-59
2023/04/18 06:36:40;;;;;;;4.18;2.42;;;;;;;;;;5085527;28;20347;-57
2023/04/18 06:39:05;;;;;;;5.20;2.70;;;;;;;;;;5087670;28;20660;-58
2023/04/18 06:41:31;;;;;;;5.85;2.90;;;;;;;;;;5087166;28;20539;-60
2023/04/18 06:43:56;;;;;;;5.40;2.60;;;;;;;;;;5087892;28;20077;-59
2023/04/18 06:46:21;;;;;;;7.28;2.92;;;;;;;;;;5087669;28;20081;-53
2023/04/18 06:48:47;;;;;;;5.38;2.70;;;;;;;;;;5087142;28;20039;-53
2023/04/18 06:51:12;;;;;;;15.65;3.97;;;;;;;;;;5084290;28;20085;-57
2023/04/18 06:53:38;;;;;;;14.13;3.42;;;;;;;;;;5075436;28;20008;-59
2023/04/18 06:56:03;;;;;;;6.32;2.45;;;;;;;;;;5079099;28;20020;-59
2023/04/18 06:58:29;;;;;;;5.68;2.15;;;;;;;;;;5086291;28;20016;-58
2023/04/18 07:00:54;;;;;;;5.53;2.47;;;;;;;;;;5073125;28;20042;-59
2023/04/18 07:03:19;;;;;;;8.90;2.70;;;;;;;;;;5065882;28;20444;-58
2023/04/18 07:05:45;;;;;;;12.93;2.92;;;;;;;;;;5071742;28;20051;-58
2023/04/18 07:08:10;;;;;;;7.03;2.28;;;;;;;;;;5071462;28;20812;-58
2023/04/18 07:10:35;;;;;;;5.80;2.05;;;;;;;;;;5068663;28;20119;-56
2023/04/18 07:13:01;;;;;;;6.32;2.40;;;;;;;;;;5075386;28;20534;-53
2023/04/18 07:15:26;;;;;;;9.13;2.70;;;;;;;;;;5080264;28;20163;-56
2023/04/18 07:17:51;;;;;;;4.82;2.17;;;;;;;;;;5073030;28;20051;-54
2023/04/18 07:20:16;;;;;;;4.40;2.20;;;;;;;;;;5073906;28;20040;-57
2023/04/18 07:22:42;;;;;;;3.05;2.13;;;;;;;;;;5093811;28;20471;-54
2023/04/18 07:25:07;;;;;;;5.22;1.92;;;;;;;;;;5089035;28;20362;-57
2023/04/18 07:27:36;;;;;;;3.17;2.00;;;;;;;;;;5086537;28;20059;-55
2023/04/18 07:30:01;;;;;;;3.00;2.10;;;;;;;;;;5078086;28;20510;-55
2023/04/18 07:32:27;;;;;;;6.15;2.35;;;;;;;;;;5073439;28;20024;-57
2023/04/18 07:34:52;;;;;;;5.55;2.40;;;;;;;;;;5072321;28;20350;-58
2023/04/18 07:37:20;;;;;;;3.78;2.22;;;;;;;;;;5086793;28;20024;-57
2023/04/18 07:39:45;;;;;;;5.82;2.88;;;;;;;;;;5086106;28;20077;-57
2023/04/18 07:42:10;;;;;;;7.63;3.33;;;;;;;;;;5099165;28;20062;-55
2023/04/18 07:44:36;;;;;;;5.22;2.72;;;;;;;;;;5091368;28;20375;-57
2023/04/18 07:47:01;;;;;;;4.25;2.50;;;;;;;;;;5082822;28;20051;-56
2023/04/18 07:49:27;;;;;;;5.35;2.63;;;;;;;;;;5075849;28;20056;-52
2023/04/18 07:51:52;;;;;;;6.72;3.15;;;;;;;;;;5077340;28;20032;-55
2023/04/18 07:54:36;;;;;;;8.00;3.22;;;;;;;;;;5094593;28;20031;-57
2023/04/18 07:57:01;;;;;;;4.88;2.45;;;;;;;;;;5089302;28;20020;-59
2023/04/18 07:59:28;;;;;;;5.65;2.53;;;;;;;;;;5082948;28;20039;-58
2023/04/18 08:01:53;;;;;;;4.70;2.22;;;;;;;;;;5079040;28;20020;-59
2023/04/18 08:04:18;;;;;;;4.75;2.03;;;;;;;;;;5090856;28;20238;-58
2023/04/18 08:06:44;;;;;;;2.60;1.95;;;;;;;;;;5065890;28;20396;-60
2023/04/18 08:09:09;;;;;;;3.15;2.15;;;;;;;;;;5075681;28;20103;-59
2023/04/18 08:11:34;;;;;;;3.55;1.90;;;;;;;;;;5080679;28;20015;-58
2023/04/18 08:14:00;;;;;;;5.30;1.90;;;;;;;;;;5085880;28;20529;-59
2023/04/18 08:16:25;;;;;;;3.47;1.80;;;;;;;;;;5091033;28;20455;-60
2023/04/18 08:18:51;;;;;;;6.43;2.05;;;;;;;;;;5097402;28;20043;-58
2023/04/18 08:21:17;;;;;;;5.57;2.38;;;;;;;;;;5075127;28;20492;-60
2023/04/18 08:23:42;;;;;;;2.22;1.60;;;;;;;;;;5067024;28;20027;-60
2023/04/18 08:26:07;;;;;;;3.77;1.90;;;;;;;;;;5063776;28;20024;-58
2023/04/18 08:28:32;;;;;;;4.93;1.83;;;;;;;;;;5062976;28;20789;-60
2023/04/18 08:30:58;;;;;;;3.23;2.07;;;;;;;;;;5065213;28;20273;-61
2023/04/18 08:33:23;;;;;;;2.17;1.50;;;;;;;;;;5065160;28;20288;-63
2023/04/18 08:35:52;;;;;;;3.92;1.90;;;;;;;;;;5077553;28;20019;-61
2023/04/18 08:38:17;;;;;;;5.93;1.83;;;;;;;;;;5071950;28;20111;-62
2023/04/18 08:40:43;;;;;;;1.77;1.60;;;;;;;;;;5068559;28;20099;-61
2023/04/18 08:43:11;;;;;;;3.65;1.90;;;;;;;;;;5067990;28;20034;-60
2023/04/18 08:45:37;;;;;;;6.55;2.05;;;;;;;;;;5065086;28;20463;-60
2023/04/18 08:48:02;;;;;;;3.42;1.70;;;;;;;;;;5066899;28;20021;-61
2023/04/18 08:50:28;;;;;;;3.65;2.05;;;;;;;;;;5073867;28;20028;-61
2023/04/18 08:52:53;;;;;;;6.93;2.03;;;;;;;;;;5078424;28;20024;-61
2023/04/18 08:55:21;;;;;;;5.18;2.25;;;;;;;;;;5081377;28;20362;-60
2023/04/18 08:57:46;;;;;;;10.70;2.35;;;;;;;;;;5078994;28;20044;-61
2023/04/18 09:00:12;;;;;;;7.50;2.58;;;;;;;;;;5082762;28;20055;-62
2023/04/18 09:02:41;;;;;;;4.10;1.80;;;;;;;;;;5083535;28;20028;-61
2023/04/18 09:05:13;;;;;;;4.55;1.83;;;;;;;;;;5086408;28;20476;-61
2023/04/18 09:07:39;;;;;;;3.42;1.70;;;;;;;;;;5085329;28;20054;-60
2023/04/18 09:10:05;;;;;;;8.02;1.90;;;;;;;;;;5082773;28;20107;-61
2023/04/18 09:12:31;;;;;;;8.20;2.13;;;;;;;;;;5074493;28;20082;-59
2023/04/18 09:15:19;;;;;;;10.18;2.90;;;;;;;;;;5080981;28;20023;-58
2023/04/18 09:17:48;;;;;;;5.72;2.08;;;;;;;;;;5093347;28;20016;-57
2023/04/18 09:20:14;;;;;;;;;;;;;;;;;;5085985;28;20077;-59
2023/04/18 09:22:47;;;;;;;3.58;1.77;;;;;;;;;;5085762;28;19912;-58
2023/04/18 09:25:36;;;;;;;4.80;2.15;;;;;;;;;;5082181;28;20030;-61
2023/04/18 09:28:01;;;;;;;4.18;1.80;;;;;;;;;;5077396;28;20388;-60
2023/04/18 09:30:38;;;;;;;6.10;2.05;;;;;;;;;;5086079;28;20702;-59
2023/04/18 09:33:08;;;;;;;4.10;1.83;;;;;;;;;;5085301;28;20326;-60
2023/04/18 09:35:37;;;;;;;8.57;2.67;;;;;;;;;;5085837;28;20020;-61
2023/04/18 09:38:04;;;;;;;3.72;1.98;;;;;;;;;;5086052;28;20108;-60
2023/04/18 09:40:29;;;;;;;2.85;1.60;;;;;;;;;;5086363;28;20032;-61
2023/04/18 09:42:55;;;;;;;3.10;1.65;;;;;;;;;;5086069;28;20066;-59
2023/04/18 09:45:20;;;;;;;6.30;1.50;;;;;;;;;;5085637;28;20028;-60
2023/04/18 09:47:46;;;;;;;3.85;1.60;;;;;;;;;;5085312;28;20020;-60
2023/04/18 09:50:11;;;;;;;5.75;1.55;;;;;;;;;;5088087;28;20146;-59
2023/04/18 09:52:37;;;;;;;2.97;1.50;;;;;;;;;;5088322;28;20024;-59
2023/04/18 09:55:04;;;;;;;6.32;2.08;;;;;;;;;;5090701;28;20089;-59
2023/04/18 09:57:30;;;;;;;4.78;1.95;;;;;;;;;;5088422;28;20035;-60
2023/04/18 10:00:09;;;;;;;3.60;1.92;;;;;;;;;;5092768;28;20071;-59
2023/04/18 10:03:04;;;;;;;5.57;1.65;;;;;;;;;;5087022;28;20473;-61
2023/04/18 10:05:36;;;;;;;5.18;1.58;;;;;;;;;;5023177;28;20484;-60
2023/04/18 10:08:02;;;;;;;4.05;1.65;;;;;;;;;;5025593;28;20109;-58
2023/04/18 10:10:27;;;;;;;4.53;1.63;;;;;;;;;;5026307;28;20512;-55
2023/04/18 10:12:53;;;;;;;4.93;1.98;;;;;;;;;;5025875;28;20173;-58
2023/04/18 10:15:20;;;;;;;2.65;1.58;;;;;;;;;;5026112;28;20040;-61
2023/04/18 10:17:53;;;;;;;6.38;1.65;;;;;;;;;;5024828;28;20137;-60
2023/04/18 10:20:19;;;;;;;8.82;1.98;;;;;;;;;;5025981;28;20184;-59
2023/04/18 10:22:46;;;;;;;5.80;1.55;;;;;;;;;;5025054;28;20425;-61
2023/04/18 10:25:11;;;;;;;5.50;1.88;;;;;;;;;;5025200;28;20187;-61
2023/04/18 10:27:58;;;;;;;2.38;1.60;;;;;;;;;;5025597;28;21842;-61
2023/04/18 10:30:39;;;;;;;5.00;1.50;;;;;;;;;;5026245;28;20029;-60
2023/04/18 10:33:23;;;;;;;3.53;2.05;;;;;;;;;;5014683;28;20021;-60
2023/04/18 10:36:15;;;;;;;5.60;2.50;;;;;;;;;;5018548;28;20469;-56
2023/04/18 10:38:45;;;;;;;5.45;2.03;;;;;;;;;;4982495;28;20431;-57
2023/04/18 10:41:16;;;;;;;10.88;2.85;;;;;;;;;;4990444;28;20542;-58
2023/04/18 10:44:01;;;;;;;3.63;1.55;;;;;;;;;;5042910;28;20074;-60
2023/04/18 10:46:27;;;;;;;3.22;1.75;;;;;;;;;;4942019;28;20038;-63
2023/04/18 10:49:10;;;;;;;4.53;1.60;;;;;;;;;;4944451;28;20035;-61
2023/04/18 10:51:35;;;;;;;4.32;1.67;;;;;;;;;;4943874;28;20186;-61
2023/04/18 10:54:01;;;;;;;4.67;1.73;;;;;;;;;;4945391;29;20118;-62
2023/04/18 10:56:27;;;;;;;2.33;1.58;;;;;;;;;;4947222;28;20266;-60
2023/04/18 10:58:53;;;;;;;2.80;1.75;;;;;;;;;;4950331;28;20039;-62
2023/04/18 11:01:23;;;;;;;4.80;1.70;;;;;;;;;;4940724;28;20184;-62
2023/04/18 11:03:49;;;;;;;5.82;1.73;;;;;;;;;;4963339;28;20297;-62
2023/04/18 11:06:15;;;;;;;5.10;1.70;;;;;;;;;;4934929;28;20395;-63
2023/04/18 11:08:40;;;;;;;2.80;1.60;;;;;;;;;;4932204;28;20052;-64
2023/04/18 11:11:08;;;;;;;10.03;2.13;;;;;;;;;;4922965;29;20046;-62
2023/04/18 11:13:35;;;;;;;5.53;1.77;;;;;;;;;;4925732;28;20854;-63
2023/04/18 11:16:00;;;;;;;5.55;1.40;;;;;;;;;;4971473;28;20034;-61
2023/04/18 11:18:26;;;;;;;6.75;1.60;;;;;;;;;;4997401;28;20028;-61
2023/04/18 11:20:51;;;;;;;4.72;1.83;;;;;;;;;;5007154;28;20342;-62
2023/04/18 11:23:19;;;;;;;3.60;1.60;;;;;;;;;;5031627;28;20078;-59
2023/04/18 11:25:45;;;;;;;4.68;1.80;;;;;;;;;;5072128;28;20063;-60
2023/04/18 11:28:12;;;;;;;5.47;1.65;;;;;;;;;;5076620;28;20470;-61
2023/04/18 11:30:38;;;;;;;3.63;1.10;;;;;;;;;;5086198;28;20380;-57
2023/04/18 11:33:07;;;;;;;3.28;1.13;;;;;;;;;;5084330;28;20028;-57
2023/04/18 11:35:35;;;;;;;3.63;1.23;;;;;;;;;;5085292;28;20020;-60
2023/04/18 11:38:01;;;;;;;6.13;1.20;;;;;;;;;;5075094;28;20074;-60
2023/04/18 11:40:26;;;;;;;4.30;1.10;;;;;;;;;;5084470;28;20023;-59
2023/04/18 11:42:53;;;;;;;3.13;1.13;;;;;;;;;;5080604;28;20813;-60
2023/04/18 11:45:18;;;;;;;3.10;1.30;;;;;;;;;;5086102;28;20028;-60
2023/04/18 11:47:45;;;;;;;6.20;1.48;;;;;;;;;;5091163;28;20062;-59
2023/04/18 11:50:11;;;;;;;3.45;1.40;;;;;;;;;;5086539;28;20393;-56
2023/04/18 11:52:36;;;;;;;3.47;1.42;;;;;;;;;;5086705;28;20024;-54
2023/04/18 11:55:19;;;;;;;4.43;1.10;;;;;;;;;;5086154;28;20024;-58
2023/04/18 11:57:49;;;;;;;2.08;1.30;;;;;;;;;;5085927;28;20103;-55
2023/04/18 12:00:15;;;;;;;3.58;1.27;;;;;;;;;;5085059;28;20015;-55
2023/04/18 12:02:45;;;;;;;4.97;1.42;;;;;;;;;;5089559;28;20028;-58
2023/04/18 12:05:12;;;;;;;6.28;1.95;;;;;;;;;;5085551;28;20028;-61
2023/04/18 12:07:38;;;;;;;4.03;1.70;;;;;;;;;;5086278;28;20433;-60
2023/04/18 12:10:04;;;;;;;5.35;1.27;;;;;;;;;;5085249;28;20358;-63
2023/04/18 12:12:30;;;;;;;3.05;1.40;;;;;;;;;;5081740;28;20032;-64
2023/04/18 12:15:00;;;;;;;2.95;1.27;;;;;;;;;;5086490;28;20044;-59
2023/04/18 12:17:26;;;;;;;3.88;1.40;;;;;;;;;;5087569;28;20031;-63
2023/04/18 12:19:52;;;;;;;5.50;1.13;;;;;;;;;;5086261;28;20035;-64
2023/04/18 12:22:18;;;;;;;3.53;1.13;;;;;;;;;;5086817;28;20032;-64
2023/04/18 12:24:43;;;;;;;3.97;1.10;;;;;;;;;;5078657;28;20035;-61
2023/04/18 12:27:10;;;;;;;2.67;1.25;;;;;;;;;;5085194;28;20065;-62
2023/04/18 12:29:36;;;;;;;9.75;1.27;;;;;;;;;;5084862;28;20038;-61
2023/04/18 12:32:01;;;;;;;2.65;1.25;;;;;;;;;;5085921;28;20023;-58
2023/04/18 12:34:26;;;;;;;2.88;1.23;;;;;;;;;;5086651;28;20012;-63
2023/04/18 12:36:52;;;;;;;3.22;1.42;;;;;;;;;;5088097;28;20084;-63
2023/04/18 12:39:17;;;;;;;5.53;1.55;;;;;;;;;;5080789;28;20478;-62
2023/04/18 12:41:43;;;;;;;4.00;1.30;;;;;;;;;;5075913;28;20029;-62
2023/04/18 12:44:08;;;;;;;3.50;1.23;;;;;;;;;;5076610;28;20020;-62
2023/04/18 12:46:33;;;;;;;7.63;1.67;;;;;;;;;;5085173;28;20027;-64
2023/04/18 12:48:59;;;;;;;7.10;2.53;;;;;;;;;;5078139;28;20427;-62
2023/04/18 12:51:25;;;;;;;2.53;1.30;;;;;;;;;;5075361;28;20415;-62
2023/04/18 12:53:50;;;;;;;3.70;1.20;;;;;;;;;;5077829;28;20027;-60
2023/04/18 12:56:16;;;;;;;7.97;1.67;;;;;;;;;;5074759;28;20415;-65
2023/04/18 12:58:41;;;;;;;9.70;1.73;;;;;;;;;;5078188;28;20456;-63
2023/04/18 13:01:06;;;;;;;3.63;1.25;;;;;;;;;;5081896;28;20287;-62
2023/04/18 13:03:32;;;;;;;4.05;1.60;;;;;;;;;;5083773;28;20032;-57
2023/04/18 13:05:58;;;;;;;6.80;1.95;;;;;;;;;;5073482;28;20020;-61
2023/04/18 13:08:23;;;;;;;5.03;3.15;;;;;;;;;;5076440;28;20135;-60
2023/04/18 13:10:48;;;;;;;1.75;1.25;;;;;;;;;;5069274;28;20396;-59
2023/04/18 13:13:14;;;;;;;5.38;1.20;;;;;;;;;;5075890;28;20020;-59
2023/04/18 13:15:39;;;;;;;5.30;1.40;;;;;;;;;;5091284;28;20164;-60
2023/04/18 13:18:05;;;;;;;8.27;1.23;;;;;;;;;;5094469;28;20902;-61
2023/04/18 13:20:31;;;;;;;3.28;1.20;;;;;;;;;;5074703;28;20486;-61
2023/04/18 13:22:56;;;;;;;3.22;1.48;;;;;;;;;;5091973;28;20459;-57
2023/04/18 13:25:22;;;;;;;7.68;1.58;;;;;;;;;;5098652;28;20644;-61
2023/04/18 13:27:48;;;;;;;4.82;1.58;;;;;;;;;;5069105;28;20048;-59
2023/04/18 13:30:14;;;;;;;14.98;1.75;;;;;;;;;;5080179;28;20031;-59
2023/04/18 13:32:39;;;;;;;6.55;1.48;;;;;;;;;;5077708;28;20111;-62
2023/04/18 13:35:07;;;;;;;6.45;1.98;;;;;;;;;;5071769;28;20525;-59
2023/04/18 13:37:32;;;;;;;5.45;2.03;;;;;;;;;;5065607;28;20016;-60
2023/04/18 13:39:57;;;;;;;3.83;1.33;;;;;;;;;;5082021;28;20078;-61
2023/04/18 13:42:23;;;;;;;8.35;2.55;;;;;;;;;;5081124;28;20448;-59
2023/04/18 13:44:48;;;;;;;5.75;2.38;;;;;;;;;;5083158;28;20403;-59
2023/04/18 13:47:14;;;;;;;8.07;1.70;;;;;;;;;;5085560;28;20360;-60
2023/04/18 13:49:39;;;;;;;2.55;1.48;;;;;;;;;;5076672;28;20035;-61
2023/04/18 13:52:05;;;;;;;4.22;1.30;;;;;;;;;;5076025;28;20375;-59
2023/04/18 13:54:31;;;;;;;7.55;1.20;;;;;;;;;;5088144;28;20508;-60
2023/04/18 13:56:57;;;;;;;7.47;1.65;;;;;;;;;;5075647;28;20506;-61
2023/04/18 13:59:23;;;;;;;6.22;1.67;;;;;;;;;;5084902;28;20370;-59
2023/04/18 14:01:49;;;;;;;10.85;3.42;;;;;;;;;;5085643;28;20027;-57
2023/04/18 14:04:14;;;;;;;4.35;1.67;;;;;;;;;;5075954;28;20062;-58
2023/04/18 14:06:40;;;;;;;7.15;1.40;;;;;;;;;;5076437;28;20117;-57
2023/04/18 14:09:06;;;;;;;4.82;2.05;;;;;;;;;;5083011;28;20047;-56
2023/04/18 14:11:32;;;;;;;5.75;1.45;;;;;;;;;;5093445;28;20069;-56
2023/04/18 14:13:57;;;;;;;5.57;1.63;;;;;;;;;;5089347;28;20020;-56
2023/04/18 14:16:22;;;;;;;5.17;1.50;;;;;;;;;;5082661;28;20055;-55
2023/04/18 14:18:48;;;;;;;3.45;1.60;;;;;;;;;;5087391;28;20659;-59
2023/04/18 14:21:13;;;;;;;9.05;2.50;;;;;;;;;;5086530;28;20035;-58
2023/04/18 14:23:38;;;;;;;8.57;2.03;;;;;;;;;;5084405;28;20024;-62
2023/04/18 14:26:04;;;;;;;3.17;1.73;;;;;;;;;;5070902;28;21462;-61
2023/04/18 14:28:29;;;;;;;8.32;1.70;;;;;;;;;;5073922;28;20260;-60
2023/04/18 14:30:56;;;;;;;7.18;2.03;;;;;;;;;;5082154;28;20012;-58
2023/04/18 14:33:22;;;;;;;6.20;1.50;;;;;;;;;;5090306;28;20131;-60
2023/04/18 14:35:47;;;;;;;4.78;1.70;;;;;;;;;;5084789;28;20123;-60